sensor_id;sensor_type;location;lat;lon;timestamp;temperature;humidity
37300;DHT22;23184;51.902;12.836;2022-12-20T00:01:51;4.10;99.90
37300;DHT22;23184;51.902;12.836;2022-12-20T00:04:16;4.10;99.90
37300;DHT22;23184;51.902;12.836;2022-12-20T00:06:42;4.20;99.90
37300;DHT22;23184;51.902;12.836;2022-12-20T00:09:08;4.20;99.90
37300;DHT22;23184;51.902;12.836;2022-12-20T00:11:35;4.10;99.90
37300;DHT22;23184;51.902;12.836;2022-12-20T00:14:02;4.10;99.90
37300;DHT22;23184;51.902;12.836;2022-12-20T00:16:28;4.10;99.90
37300;DHT22;23184;51.902;12.836;2022-12-20T00:18:56;4.10;99.90
37300;DHT22;23184;51.902;12.836;2022-12-20T00:21:22;4.10;99.90
37300;DHT22;23184;51.902;12.836;2022-12-20T00:23:50;4.10;99.90
37300;DHT22;23184;51.902;12.836;2022-12-20T00:26:18;4.20;99.90
37300;DHT22;23184;51.902;12.836;2022-12-20T00:28:45;4.10;99.90
37300;DHT22;23184;51.902;12.836;2022-12-20T00:31:13;4.10;99.90
37300;DHT22;23184;51.902;12.836;2022-12-20T00:33:39;4.10;99.90
37300;DHT22;23184;51.902;12.836;2022-12-20T00:36:05;4.10;99.90
37300;DHT22;23184;51.902;12.836;2022-12-20T00:38:32;4.10;99.90
37300;DHT22;23184;51.902;12.836;2022-12-20T00:41:20;4.00;99.90
37300;DHT22;23184;51.902;12.836;2022-12-20T00:43:44;4.00;99.90
37300;DHT22;23184;51.902;12.836;2022-12-20T00:46:11;4.00;99.90
37300;DHT22;23184;51.902;12.836;2022-12-20T00:48:37;4.00;99.90
37300;DHT22;23184;51.902;12.836;2022-12-20T00:51:08;4.00;99.90
37300;DHT22;23184;51.902;12.836;2022-12-20T00:53:35;3.90;99.90
37300;DHT22;23184;51.902;12.836;2022-12-20T00:56:01;3.80;99.90
37300;DHT22;23184;51.902;12.836;2022-12-20T00:58:27;3.80;99.90
37300;DHT22;23184;51.902;12.836;2022-12-20T01:00:53;3.80;99.90
37300;DHT22;23184;51.902;12.836;2022-12-20T01:03:19;3.70;99.90
37300;DHT22;23184;51.902;12.836;2022-12-20T01:05:55;3.70;99.90
37300;DHT22;23184;51.902;12.836;2022-12-20T01:08:22;3.70;99.90
37300;DHT22;23184;51.902;12.836;2022-12-20T01:11:00;3.60;99.90
37300;DHT22;23184;51.902;12.836;2022-12-20T01:13:27;3.60;99.90
37300;DHT22;23184;51.902;12.836;2022-12-20T01:15:52;3.60;99.90
37300;DHT22;23184;51.902;12.836;2022-12-20T01:18:18;3.50;99.90
37300;DHT22;23184;51.902;12.836;2022-12-20T01:20:44;3.50;99.90
37300;DHT22;23184;51.902;12.836;2022-12-20T01:23:09;3.50;99.90
37300;DHT22;23184;51.902;12.836;2022-12-20T01:25:35;3.50;99.90
37300;DHT22;23184;51.902;12.836;2022-12-20T01:28:01;3.50;99.90
37300;DHT22;23184;51.902;12.836;2022-12-20T01:30:26;3.50;99.90
37300;DHT22;23184;51.902;12.836;2022-12-20T01:32:52;3.50;99.90
37300;DHT22;23184;51.902;12.836;2022-12-20T01:35:17;3.50;99.90
37300;DHT22;23184;51.902;12.836;2022-12-20T01:37:43;3.50;99.90
37300;DHT22;23184;51.902;12.836;2022-12-20T01:40:08;3.50;99.90
37300;DHT22;23184;51.902;12.836;2022-12-20T01:42:35;3.50;99.90
37300;DHT22;23184;51.902;12.836;2022-12-20T01:45:01;3.50;99.90
37300;DHT22;23184;51.902;12.836;2022-12-20T01:47:31;3.50;99.90
37300;DHT22;23184;51.902;12.836;2022-12-20T01:50:00;3.50;99.90
37300;DHT22;23184;51.902;12.836;2022-12-20T01:52:28;3.50;99.90
37300;DHT22;23184;51.902;12.836;2022-12-20T01:55:04;3.50;99.90
37300;DHT22;23184;51.902;12.836;2022-12-20T01:57:43;3.60;99.90
37300;DHT22;23184;51.902;12.836;2022-12-20T02:00:11;3.60;99.90
37300;DHT22;23184;51.902;12.836;2022-12-20T02:02:37;3.70;99.90
37300;DHT22;23184;51.902;12.836;2022-12-20T02:05:03;3.70;99.90
37300;DHT22;23184;51.902;12.836;2022-12-20T02:07:30;3.70;99.90
37300;DHT22;23184;51.902;12.836;2022-12-20T02:09:59;3.70;99.90
37300;DHT22;23184;51.902;12.836;2022-12-20T02:12:30;3.60;99.90
37300;DHT22;23184;51.902;12.836;2022-12-20T02:15:29;3.60;99.90
37300;DHT22;23184;51.902;12.836;2022-12-20T02:20:48;3.60;99.90
37300;DHT22;23184;51.902;12.836;2022-12-20T02:23:42;3.60;99.90
37300;DHT22;23184;51.902;12.836;2022-12-20T02:29:35;3.50;99.90
37300;DHT22;23184;51.902;12.836;2022-12-20T02:32:08;3.50;99.90
37300;DHT22;23184;51.902;12.836;2022-12-20T02:34:38;3.50;99.90
37300;DHT22;23184;51.902;12.836;2022-12-20T02:37:04;3.60;99.90
37300;DHT22;23184;51.902;12.836;2022-12-20T02:39:31;3.50;99.90
37300;DHT22;23184;51.902;12.836;2022-12-20T02:42:02;3.60;99.90
37300;DHT22;23184;51.902;12.836;2022-12-20T02:44:29;3.50;99.90
37300;DHT22;23184;51.902;12.836;2022-12-20T02:47:20;3.50;99.90
37300;DHT22;23184;51.902;12.836;2022-12-20T02:49:47;3.50;99.90
37300;DHT22;23184;51.902;12.836;2022-12-20T02:52:16;3.50;99.90
37300;DHT22;23184;51.902;12.836;2022-12-20T02:54:42;3.50;99.90
37300;DHT22;23184;51.902;12.836;2022-12-20T03:02:31;3.60;99.90
37300;DHT22;23184;51.902;12.836;2022-12-20T03:05:20;3.60;99.90
37300;DHT22;23184;51.902;12.836;2022-12-20T03:07:46;3.60;99.90
37300;DHT22;23184;51.902;12.836;2022-12-20T03:10:11;3.60;99.90
37300;DHT22;23184;51.902;12.836;2022-12-20T03:12:37;3.60;99.90
37300;DHT22;23184;51.902;12.836;2022-12-20T03:15:03;3.70;99.90
37300;DHT22;23184;51.902;12.836;2022-12-20T03:17:29;3.80;99.90
37300;DHT22;23184;51.902;12.836;2022-12-20T03:19:54;3.80;99.90
37300;DHT22;23184;51.902;12.836;2022-12-20T03:22:20;3.80;99.90
37300;DHT22;23184;51.902;12.836;2022-12-20T03:24:48;3.90;99.90
37300;DHT22;23184;51.902;12.836;2022-12-20T03:27:14;3.90;99.90
37300;DHT22;23184;51.902;12.836;2022-12-20T03:29:39;3.90;99.90
37300;DHT22;23184;51.902;12.836;2022-12-20T03:32:05;3.90;99.90
37300;DHT22;23184;51.902;12.836;2022-12-20T03:34:31;3.90;99.90
37300;DHT22;23184;51.902;12.836;2022-12-20T03:36:56;3.90;99.90
37300;DHT22;23184;51.902;12.836;2022-12-20T03:39:22;4.00;99.90
37300;DHT22;23184;51.902;12.836;2022-12-20T03:41:47;3.90;99.90
37300;DHT22;23184;51.902;12.836;2022-12-20T03:44:13;4.00;99.90
37300;DHT22;23184;51.902;12.836;2022-12-20T03:46:38;4.00;99.90
37300;DHT22;23184;51.902;12.836;2022-12-20T03:49:04;4.00;99.90
37300;DHT22;23184;51.902;12.836;2022-12-20T03:51:30;4.00;99.90
37300;DHT22;23184;51.902;12.836;2022-12-20T03:53:55;4.00;99.90
37300;DHT22;23184;51.902;12.836;2022-12-20T03:56:21;3.90;99.90
37300;DHT22;23184;51.902;12.836;2022-12-20T03:58:46;3.90;99.90
37300;DHT22;23184;51.902;12.836;2022-12-20T04:01:24;3.90;99.90
37300;DHT22;23184;51.902;12.836;2022-12-20T04:03:50;4.00;99.90
37300;DHT22;23184;51.902;12.836;2022-12-20T04:06:16;4.00;99.90
37300;DHT22;23184;51.902;12.836;2022-12-20T04:08:42;4.00;99.90
37300;DHT22;23184;51.902;12.836;2022-12-20T04:11:08;4.00;99.90
37300;DHT22;23184;51.902;12.836;2022-12-20T04:13:47;4.00;99.90
37300;DHT22;23184;51.902;12.836;2022-12-20T04:16:14;4.00;99.90
37300;DHT22;23184;51.902;12.836;2022-12-20T04:18:40;4.00;99.90
37300;DHT22;23184;51.902;12.836;2022-12-20T04:21:06;4.00;99.90
37300;DHT22;23184;51.902;12.836;2022-12-20T04:23:34;4.00;99.90
37300;DHT22;23184;51.902;12.836;2022-12-20T04:26:00;4.00;99.90
37300;DHT22;23184;51.902;12.836;2022-12-20T04:28:26;4.10;99.90
37300;DHT22;23184;51.902;12.836;2022-12-20T04:30:52;4.00;99.90
37300;DHT22;23184;51.902;12.836;2022-12-20T04:33:17;4.10;99.90
37300;DHT22;23184;51.902;12.836;2022-12-20T04:35:43;4.10;99.90
37300;DHT22;23184;51.902;12.836;2022-12-20T04:38:08;4.10;99.90
37300;DHT22;23184;51.902;12.836;2022-12-20T04:40:34;4.10;99.90
37300;DHT22;23184;51.902;12.836;2022-12-20T04:42:59;4.10;99.90
37300;DHT22;23184;51.902;12.836;2022-12-20T04:45:25;4.20;99.90
37300;DHT22;23184;51.902;12.836;2022-12-20T04:47:51;4.20;99.90
37300;DHT22;23184;51.902;12.836;2022-12-20T04:50:16;4.30;99.90
37300;DHT22;23184;51.902;12.836;2022-12-20T04:52:43;4.40;99.90
37300;DHT22;23184;51.902;12.836;2022-12-20T04:55:27;4.40;99.90
37300;DHT22;23184;51.902;12.836;2022-12-20T04:57:53;4.40;99.90
37300;DHT22;23184;51.902;12.836;2022-12-20T05:00:19;4.50;99.90
37300;DHT22;23184;51.902;12.836;2022-12-20T05:02:45;4.50;99.90
37300;DHT22;23184;51.902;12.836;2022-12-20T05:05:11;4.50;99.90
37300;DHT22;23184;51.902;12.836;2022-12-20T05:07:36;4.50;99.90
37300;DHT22;23184;51.902;12.836;2022-12-20T05:10:03;4.50;99.90
37300;DHT22;23184;51.902;12.836;2022-12-20T05:12:28;4.50;99.90
37300;DHT22;23184;51.902;12.836;2022-12-20T05:14:54;4.50;99.90
37300;DHT22;23184;51.902;12.836;2022-12-20T05:17:19;4.60;99.90
37300;DHT22;23184;51.902;12.836;2022-12-20T05:19:45;4.60;99.90
37300;DHT22;23184;51.902;12.836;2022-12-20T05:22:10;4.70;99.90
37300;DHT22;23184;51.902;12.836;2022-12-20T05:24:55;4.70;99.90
37300;DHT22;23184;51.902;12.836;2022-12-20T05:27:39;4.70;99.90
37300;DHT22;23184;51.902;12.836;2022-12-20T05:30:05;4.80;99.90
37300;DHT22;23184;51.902;12.836;2022-12-20T05:32:30;4.70;99.90
37300;DHT22;23184;51.902;12.836;2022-12-20T05:34:56;4.70;99.90
37300;DHT22;23184;51.902;12.836;2022-12-20T05:37:22;4.70;99.90
37300;DHT22;23184;51.902;12.836;2022-12-20T05:39:47;4.70;99.90
37300;DHT22;23184;51.902;12.836;2022-12-20T05:42:13;4.60;99.90
37300;DHT22;23184;51.902;12.836;2022-12-20T05:44:38;4.60;99.90
37300;DHT22;23184;51.902;12.836;2022-12-20T05:47:04;4.60;99.90
37300;DHT22;23184;51.902;12.836;2022-12-20T05:49:29;4.70;99.90
37300;DHT22;23184;51.902;12.836;2022-12-20T05:51:55;4.70;99.90
37300;DHT22;23184;51.902;12.836;2022-12-20T05:54:21;4.70;99.90
37300;DHT22;23184;51.902;12.836;2022-12-20T05:56:46;4.70;99.90
37300;DHT22;23184;51.902;12.836;2022-12-20T05:59:12;4.70;99.90
37300;DHT22;23184;51.902;12.836;2022-12-20T06:01:37;4.70;99.90
37300;DHT22;23184;51.902;12.836;2022-12-20T06:04:03;4.70;99.90
37300;DHT22;23184;51.902;12.836;2022-12-20T06:06:29;4.70;99.90
37300;DHT22;23184;51.902;12.836;2022-12-20T06:08:54;4.70;99.90
37300;DHT22;23184;51.902;12.836;2022-12-20T06:11:20;4.70;99.90
37300;DHT22;23184;51.902;12.836;2022-12-20T06:13:46;4.70;99.90
37300;DHT22;23184;51.902;12.836;2022-12-20T06:16:11;4.70;99.90
37300;DHT22;23184;51.902;12.836;2022-12-20T06:18:37;4.70;99.90
37300;DHT22;23184;51.902;12.836;2022-12-20T06:21:02;4.70;99.90
37300;DHT22;23184;51.902;12.836;2022-12-20T06:23:28;4.70;99.90
37300;DHT22;23184;51.902;12.836;2022-12-20T06:25:53;4.70;99.90
37300;DHT22;23184;51.902;12.836;2022-12-20T06:28:19;4.70;99.90
37300;DHT22;23184;51.902;12.836;2022-12-20T06:30:53;4.70;99.90
37300;DHT22;23184;51.902;12.836;2022-12-20T06:33:19;4.70;99.90
37300;DHT22;23184;51.902;12.836;2022-12-20T06:35:44;4.80;99.90
37300;DHT22;23184;51.902;12.836;2022-12-20T06:38:10;4.80;99.90
37300;DHT22;23184;51.902;12.836;2022-12-20T06:40:36;4.80;99.90
37300;DHT22;23184;51.902;12.836;2022-12-20T06:43:02;4.80;99.90
37300;DHT22;23184;51.902;12.836;2022-12-20T06:45:27;4.80;99.90
37300;DHT22;23184;51.902;12.836;2022-12-20T06:47:53;4.90;99.90
37300;DHT22;23184;51.902;12.836;2022-12-20T06:50:18;4.90;99.90
37300;DHT22;23184;51.902;12.836;2022-12-20T06:52:44;4.90;99.90
37300;DHT22;23184;51.902;12.836;2022-12-20T06:55:09;4.90;99.90
37300;DHT22;23184;51.902;12.836;2022-12-20T06:57:35;4.90;99.90
37300;DHT22;23184;51.902;12.836;2022-12-20T07:00:01;4.90;99.90
37300;DHT22;23184;51.902;12.836;2022-12-20T07:02:26;4.90;99.90
37300;DHT22;23184;51.902;12.836;2022-12-20T07:04:52;5.00;99.90
37300;DHT22;23184;51.902;12.836;2022-12-20T07:07:17;5.00;99.90
37300;DHT22;23184;51.902;12.836;2022-12-20T07:09:43;4.90;99.90
37300;DHT22;23184;51.902;12.836;2022-12-20T07:12:09;4.90;99.90
37300;DHT22;23184;51.902;12.836;2022-12-20T07:14:34;4.90;99.90
37300;DHT22;23184;51.902;12.836;2022-12-20T07:17:00;4.90;99.90
37300;DHT22;23184;51.902;12.836;2022-12-20T07:19:25;4.90;99.90
37300;DHT22;23184;51.902;12.836;2022-12-20T07:21:51;4.90;99.90
37300;DHT22;23184;51.902;12.836;2022-12-20T07:24:16;4.90;99.90
37300;DHT22;23184;51.902;12.836;2022-12-20T07:26:43;4.90;99.90
37300;DHT22;23184;51.902;12.836;2022-12-20T07:29:10;5.00;99.90
37300;DHT22;23184;51.902;12.836;2022-12-20T07:31:36;5.00;99.90
37300;DHT22;23184;51.902;12.836;2022-12-20T07:34:01;5.00;99.90
37300;DHT22;23184;51.902;12.836;2022-12-20T07:36:27;5.00;99.90
37300;DHT22;23184;51.902;12.836;2022-12-20T07:38:53;5.00;99.90
37300;DHT22;23184;51.902;12.836;2022-12-20T07:41:18;5.10;99.90
37300;DHT22;23184;51.902;12.836;2022-12-20T07:43:44;5.00;99.90
37300;DHT22;23184;51.902;12.836;2022-12-20T07:46:12;5.00;99.90
37300;DHT22;23184;51.902;12.836;2022-12-20T07:48:38;5.00;99.90
37300;DHT22;23184;51.902;12.836;2022-12-20T07:51:19;5.00;99.90
37300;DHT22;23184;51.902;12.836;2022-12-20T07:53:50;5.10;99.90
37300;DHT22;23184;51.902;12.836;2022-12-20T07:56:18;5.10;99.90
37300;DHT22;23184;51.902;12.836;2022-12-20T07:58:45;5.20;99.90
37300;DHT22;23184;51.902;12.836;2022-12-20T08:01:12;5.20;99.90
37300;DHT22;23184;51.902;12.836;2022-12-20T08:03:43;5.30;99.90
37300;DHT22;23184;51.902;12.836;2022-12-20T08:06:09;5.30;99.90
37300;DHT22;23184;51.902;12.836;2022-12-20T08:08:37;5.30;99.90
37300;DHT22;23184;51.902;12.836;2022-12-20T08:11:06;5.30;99.90
37300;DHT22;23184;51.902;12.836;2022-12-20T08:13:33;5.40;99.90
37300;DHT22;23184;51.902;12.836;2022-12-20T08:15:59;5.50;99.90
37300;DHT22;23184;51.902;12.836;2022-12-20T08:18:25;5.50;99.90
37300;DHT22;23184;51.902;12.836;2022-12-20T08:20:51;5.50;99.90
37300;DHT22;23184;51.902;12.836;2022-12-20T08:23:17;5.50;99.90
37300;DHT22;23184;51.902;12.836;2022-12-20T08:25:43;5.50;99.90
37300;DHT22;23184;51.902;12.836;2022-12-20T08:28:09;5.50;99.90
37300;DHT22;23184;51.902;12.836;2022-12-20T08:30:35;5.60;99.90
37300;DHT22;23184;51.902;12.836;2022-12-20T08:33:01;5.60;99.90
37300;DHT22;23184;51.902;12.836;2022-12-20T08:35:26;5.60;99.90
37300;DHT22;23184;51.902;12.836;2022-12-20T08:37:52;5.60;99.90
37300;DHT22;23184;51.902;12.836;2022-12-20T08:40:18;5.70;99.90
37300;DHT22;23184;51.902;12.836;2022-12-20T08:42:44;5.70;99.90
37300;DHT22;23184;51.902;12.836;2022-12-20T08:45:10;5.80;99.90
37300;DHT22;23184;51.902;12.836;2022-12-20T08:47:36;5.80;99.90
37300;DHT22;23184;51.902;12.836;2022-12-20T08:50:02;5.80;99.90
37300;DHT22;23184;51.902;12.836;2022-12-20T08:52:28;5.90;99.90
37300;DHT22;23184;51.902;12.836;2022-12-20T08:54:54;5.80;99.90
37300;DHT22;23184;51.902;12.836;2022-12-20T08:57:19;5.90;99.90
37300;DHT22;23184;51.902;12.836;2022-12-20T08:59:45;5.90;99.90
37300;DHT22;23184;51.902;12.836;2022-12-20T09:02:10;5.90;99.90
37300;DHT22;23184;51.902;12.836;2022-12-20T09:04:36;5.90;99.90
37300;DHT22;23184;51.902;12.836;2022-12-20T09:07:01;5.90;99.90
37300;DHT22;23184;51.902;12.836;2022-12-20T09:09:27;5.90;99.90
37300;DHT22;23184;51.902;12.836;2022-12-20T09:11:53;6.00;99.90
37300;DHT22;23184;51.902;12.836;2022-12-20T09:14:18;6.00;99.90
37300;DHT22;23184;51.902;12.836;2022-12-20T09:16:44;6.00;99.90
37300;DHT22;23184;51.902;12.836;2022-12-20T09:19:11;6.10;99.90
37300;DHT22;23184;51.902;12.836;2022-12-20T09:21:37;6.10;99.90
37300;DHT22;23184;51.902;12.836;2022-12-20T09:24:02;6.20;99.90
37300;DHT22;23184;51.902;12.836;2022-12-20T09:26:28;6.20;99.90
37300;DHT22;23184;51.902;12.836;2022-12-20T09:28:55;6.30;99.90
37300;DHT22;23184;51.902;12.836;2022-12-20T09:31:23;6.30;99.90
37300;DHT22;23184;51.902;12.836;2022-12-20T09:33:51;6.30;99.90
37300;DHT22;23184;51.902;12.836;2022-12-20T09:36:19;6.30;99.90
37300;DHT22;23184;51.902;12.836;2022-12-20T09:38:45;6.40;99.90
37300;DHT22;23184;51.902;12.836;2022-12-20T09:41:36;6.50;99.90
37300;DHT22;23184;51.902;12.836;2022-12-20T09:46:56;6.50;99.90
37300;DHT22;23184;51.902;12.836;2022-12-20T09:49:29;6.50;99.90
37300;DHT22;23184;51.902;12.836;2022-12-20T09:58:01;6.40;99.90
37300;DHT22;23184;51.902;12.836;2022-12-20T10:00:35;6.40;99.90
37300;DHT22;23184;51.902;12.836;2022-12-20T10:03:03;6.50;99.90
37300;DHT22;23184;51.902;12.836;2022-12-20T10:05:42;6.50;99.90
37300;DHT22;23184;51.902;12.836;2022-12-20T10:10:54;6.50;99.90
37300;DHT22;23184;51.902;12.836;2022-12-20T10:21:50;6.70;99.90
37300;DHT22;23184;51.902;12.836;2022-12-20T10:24:20;6.80;99.90
37300;DHT22;23184;51.902;12.836;2022-12-20T10:26:49;6.90;99.90
37300;DHT22;23184;51.902;12.836;2022-12-20T10:29:17;6.80;99.90
37300;DHT22;23184;51.902;12.836;2022-12-20T10:31:43;6.90;99.90
37300;DHT22;23184;51.902;12.836;2022-12-20T10:34:08;6.90;99.90
37300;DHT22;23184;51.902;12.836;2022-12-20T10:36:35;6.90;99.90
37300;DHT22;23184;51.902;12.836;2022-12-20T10:39:09;6.90;99.90
37300;DHT22;23184;51.902;12.836;2022-12-20T10:44:23;6.90;99.90
37300;DHT22;23184;51.902;12.836;2022-12-20T10:46:52;6.90;99.90
37300;DHT22;23184;51.902;12.836;2022-12-20T10:49:38;7.00;99.90
37300;DHT22;23184;51.902;12.836;2022-12-20T10:52:11;7.00;99.90
37300;DHT22;23184;51.902;12.836;2022-12-20T10:54:45;6.90;99.90
37300;DHT22;23184;51.902;12.836;2022-12-20T10:57:23;6.90;99.90
37300;DHT22;23184;51.902;12.836;2022-12-20T11:00:05;6.90;99.90
37300;DHT22;23184;51.902;12.836;2022-12-20T11:02:35;6.80;99.90
37300;DHT22;23184;51.902;12.836;2022-12-20T11:07:38;6.80;99.90
37300;DHT22;23184;51.902;12.836;2022-12-20T11:10:22;6.80;99.90
37300;DHT22;23184;51.902;12.836;2022-12-20T11:13:02;6.90;99.90
37300;DHT22;23184;51.902;12.836;2022-12-20T11:15:29;6.90;99.90
37300;DHT22;23184;51.902;12.836;2022-12-20T11:18:00;6.90;99.90
37300;DHT22;23184;51.902;12.836;2022-12-20T11:23:39;6.90;99.90
37300;DHT22;23184;51.902;12.836;2022-12-20T11:31:38;7.00;99.90
37300;DHT22;23184;51.902;12.836;2022-12-20T11:37:07;7.00;99.90
37300;DHT22;23184;51.902;12.836;2022-12-20T11:45:24;7.00;99.90
37300;DHT22;23184;51.902;12.836;2022-12-20T11:48:20;7.10;99.90
37300;DHT22;23184;51.902;12.836;2022-12-20T11:53:44;7.00;99.90
37300;DHT22;23184;51.902;12.836;2022-12-20T11:56:18;7.00;99.90
37300;DHT22;23184;51.902;12.836;2022-12-20T11:58:59;6.90;99.90
37300;DHT22;23184;51.902;12.836;2022-12-20T12:01:31;6.80;99.90
37300;DHT22;23184;51.902;12.836;2022-12-20T12:04:25;6.90;99.90
37300;DHT22;23184;51.902;12.836;2022-12-20T12:06:57;6.90;99.90
37300;DHT22;23184;51.902;12.836;2022-12-20T12:15:21;6.90;99.90
37300;DHT22;23184;51.902;12.836;2022-12-20T12:18:16;7.00;99.90
37300;DHT22;23184;51.902;12.836;2022-12-20T12:21:25;7.00;99.90
37300;DHT22;23184;51.902;12.836;2022-12-20T12:26:38;7.10;99.90
37300;DHT22;23184;51.902;12.836;2022-12-20T12:29:13;7.20;99.90
37300;DHT22;23184;51.902;12.836;2022-12-20T12:31:55;7.20;99.90
37300;DHT22;23184;51.902;12.836;2022-12-20T12:40:24;7.10;99.90
37300;DHT22;23184;51.902;12.836;2022-12-20T12:43:08;7.10;99.90
37300;DHT22;23184;51.902;12.836;2022-12-20T12:48:24;7.10;99.90
37300;DHT22;23184;51.902;12.836;2022-12-20T12:50:54;7.00;99.90
37300;DHT22;23184;51.902;12.836;2022-12-20T12:55:50;6.90;99.90
37300;DHT22;23184;51.902;12.836;2022-12-20T13:01:02;6.80;99.90
37300;DHT22;23184;51.902;12.836;2022-12-20T13:03:45;6.70;99.90
37300;DHT22;23184;51.902;12.836;2022-12-20T13:11:32;6.50;99.90
37300;DHT22;23184;51.902;12.836;2022-12-20T13:16:54;6.40;99.90
37300;DHT22;23184;51.902;12.836;2022-12-20T13:19:47;6.30;99.90
37300;DHT22;23184;51.902;12.836;2022-12-20T13:24:55;6.10;99.90
37300;DHT22;23184;51.902;12.836;2022-12-20T13:32:54;6.10;99.90
37300;DHT22;23184;51.902;12.836;2022-12-20T13:40:30;6.00;99.90
37300;DHT22;23184;51.902;12.836;2022-12-20T13:42:58;6.00;99.90
37300;DHT22;23184;51.902;12.836;2022-12-20T13:45:28;6.00;99.90
37300;DHT22;23184;51.902;12.836;2022-12-20T13:47:58;6.00;99.90
37300;DHT22;23184;51.902;12.836;2022-12-20T13:50:35;5.90;99.90
37300;DHT22;23184;51.902;12.836;2022-12-20T13:53:04;5.90;99.90
37300;DHT22;23184;51.902;12.836;2022-12-20T13:55:37;5.90;99.90
37300;DHT22;23184;51.902;12.836;2022-12-20T13:58:05;5.90;99.90
37300;DHT22;23184;51.902;12.836;2022-12-20T14:00:32;5.90;99.90
37300;DHT22;23184;51.902;12.836;2022-12-20T14:02:59;5.90;99.90
37300;DHT22;23184;51.902;12.836;2022-12-20T14:05:30;5.80;99.90
37300;DHT22;23184;51.902;12.836;2022-12-20T14:08:02;5.80;99.90
37300;DHT22;23184;51.902;12.836;2022-12-20T14:10:30;5.80;99.90
37300;DHT22;23184;51.902;12.836;2022-12-20T14:12:57;5.80;99.90
37300;DHT22;23184;51.902;12.836;2022-12-20T14:17:49;5.60;99.90
37300;DHT22;23184;51.902;12.836;2022-12-20T14:20:18;5.50;99.90
37300;DHT22;23184;51.902;12.836;2022-12-20T14:23:09;5.50;99.90
37300;DHT22;23184;51.902;12.836;2022-12-20T14:25:59;5.60;99.90
37300;DHT22;23184;51.902;12.836;2022-12-20T14:28:36;5.60;99.90
37300;DHT22;23184;51.902;12.836;2022-12-20T14:31:05;5.60;99.90
37300;DHT22;23184;51.902;12.836;2022-12-20T14:33:35;5.50;99.90
37300;DHT22;23184;51.902;12.836;2022-12-20T14:36:19;5.50;99.90
37300;DHT22;23184;51.902;12.836;2022-12-20T14:38:49;5.40;99.90
37300;DHT22;23184;51.902;12.836;2022-12-20T14:41:28;5.40;99.90
37300;DHT22;23184;51.902;12.836;2022-12-20T14:44:19;5.40;99.90
37300;DHT22;23184;51.902;12.836;2022-12-20T14:46:59;5.40;99.90
37300;DHT22;23184;51.902;12.836;2022-12-20T14:49:29;5.30;99.90
37300;DHT22;23184;51.902;12.836;2022-12-20T14:54:49;5.30;99.90
37300;DHT22;23184;51.902;12.836;2022-12-20T15:00:23;5.10;99.90
37300;DHT22;23184;51.902;12.836;2022-12-20T15:08:18;5.20;99.90
37300;DHT22;23184;51.902;12.836;2022-12-20T15:10:56;5.20;99.90
37300;DHT22;23184;51.902;12.836;2022-12-20T15:13:40;5.20;99.90
37300;DHT22;23184;51.902;12.836;2022-12-20T15:16:16;5.20;99.90
37300;DHT22;23184;51.902;12.836;2022-12-20T15:18:46;5.20;99.90
37300;DHT22;23184;51.902;12.836;2022-12-20T15:21:17;5.20;99.90
37300;DHT22;23184;51.902;12.836;2022-12-20T15:23:49;5.20;99.90
37300;DHT22;23184;51.902;12.836;2022-12-20T15:26:17;5.20;99.90
37300;DHT22;23184;51.902;12.836;2022-12-20T15:28:44;5.20;99.90
37300;DHT22;23184;51.902;12.836;2022-12-20T15:31:11;5.20;99.90
37300;DHT22;23184;51.902;12.836;2022-12-20T15:33:39;5.20;99.90
37300;DHT22;23184;51.902;12.836;2022-12-20T15:36:05;5.10;99.90
37300;DHT22;23184;51.902;12.836;2022-12-20T15:38:30;5.10;99.90
37300;DHT22;23184;51.902;12.836;2022-12-20T15:41:02;5.10;99.90
37300;DHT22;23184;51.902;12.836;2022-12-20T15:43:35;5.10;99.90
37300;DHT22;23184;51.902;12.836;2022-12-20T15:46:02;5.10;99.90
37300;DHT22;23184;51.902;12.836;2022-12-20T15:48:27;5.00;99.90
37300;DHT22;23184;51.902;12.836;2022-12-20T15:50:54;5.00;99.90
37300;DHT22;23184;51.902;12.836;2022-12-20T15:53:24;5.00;99.90
37300;DHT22;23184;51.902;12.836;2022-12-20T15:55:53;5.00;99.90
37300;DHT22;23184;51.902;12.836;2022-12-20T15:58:19;5.10;99.90
37300;DHT22;23184;51.902;12.836;2022-12-20T16:00:45;5.10;99.90
37300;DHT22;23184;51.902;12.836;2022-12-20T16:03:19;5.10;99.90
37300;DHT22;23184;51.902;12.836;2022-12-20T16:05:49;5.20;99.90
37300;DHT22;23184;51.902;12.836;2022-12-20T16:08:16;5.20;99.90
37300;DHT22;23184;51.902;12.836;2022-12-20T16:10:45;5.30;99.90
37300;DHT22;23184;51.902;12.836;2022-12-20T16:13:20;5.40;99.90
37300;DHT22;23184;51.902;12.836;2022-12-20T16:15:45;5.40;99.90
37300;DHT22;23184;51.902;12.836;2022-12-20T16:18:11;5.50;99.90
37300;DHT22;23184;51.902;12.836;2022-12-20T16:20:37;5.50;99.90
37300;DHT22;23184;51.902;12.836;2022-12-20T16:23:03;5.60;99.90
37300;DHT22;23184;51.902;12.836;2022-12-20T16:25:34;5.60;99.90
37300;DHT22;23184;51.902;12.836;2022-12-20T16:28:00;5.60;99.90
37300;DHT22;23184;51.902;12.836;2022-12-20T16:30:26;5.50;99.90
37300;DHT22;23184;51.902;12.836;2022-12-20T16:32:52;5.50;99.90
37300;DHT22;23184;51.902;12.836;2022-12-20T16:37:52;5.40;99.90
37300;DHT22;23184;51.902;12.836;2022-12-20T16:40:17;5.40;99.90
37300;DHT22;23184;51.902;12.836;2022-12-20T16:42:43;5.20;99.90
37300;DHT22;23184;51.902;12.836;2022-12-20T16:45:16;5.10;99.90
37300;DHT22;23184;51.902;12.836;2022-12-20T16:47:43;5.00;99.90
37300;DHT22;23184;51.902;12.836;2022-12-20T16:50:09;4.90;99.90
37300;DHT22;23184;51.902;12.836;2022-12-20T16:52:34;4.90;99.90
37300;DHT22;23184;51.902;12.836;2022-12-20T16:55:02;4.80;99.90
37300;DHT22;23184;51.902;12.836;2022-12-20T16:57:28;4.80;99.90
37300;DHT22;23184;51.902;12.836;2022-12-20T16:59:53;4.80;99.90
37300;DHT22;23184;51.902;12.836;2022-12-20T17:02:27;4.80;99.90
37300;DHT22;23184;51.902;12.836;2022-12-20T17:04:53;4.80;99.90
37300;DHT22;23184;51.902;12.836;2022-12-20T17:07:19;4.80;99.90
37300;DHT22;23184;51.902;12.836;2022-12-20T17:09:44;4.80;99.90
37300;DHT22;23184;51.902;12.836;2022-12-20T17:12:14;4.90;99.90
37300;DHT22;23184;51.902;12.836;2022-12-20T17:14:40;4.90;99.90
37300;DHT22;23184;51.902;12.836;2022-12-20T17:17:05;4.90;99.90
37300;DHT22;23184;51.902;12.836;2022-12-20T17:19:32;4.90;99.90
37300;DHT22;23184;51.902;12.836;2022-12-20T17:21:57;4.80;99.90
37300;DHT22;23184;51.902;12.836;2022-12-20T17:24:23;4.80;99.90
37300;DHT22;23184;51.902;12.836;2022-12-20T17:26:49;4.80;99.90
37300;DHT22;23184;51.902;12.836;2022-12-20T17:29:15;4.70;99.90
37300;DHT22;23184;51.902;12.836;2022-12-20T17:31:43;4.60;99.90
37300;DHT22;23184;51.902;12.836;2022-12-20T17:34:23;4.60;99.90
37300;DHT22;23184;51.902;12.836;2022-12-20T17:36:51;4.60;99.90
37300;DHT22;23184;51.902;12.836;2022-12-20T17:39:17;4.60;99.90